createdAt,value
2023-02-25T00:03:30.000Z,4
2023-02-25T00:13:52.203Z,5
2023-02-25T00:23:45.837Z,6
2023-02-25T00:33:50.559Z,5
2023-02-25T00:43:56.441Z,7
2023-02-25T00:54:00.667Z,3
2023-02-25T01:04:08.170Z,3
2023-02-25T01:14:13.127Z,3
2023-02-25T01:24:19.807Z,3
2023-02-25T01:34:24.236Z,4
2023-02-25T01:44:31.005Z,4
2023-02-25T01:54:36.691Z,2
2023-02-25T02:04:44.247Z,4
2023-02-25T02:14:47.897Z,2
2023-02-25T02:24:55.113Z,5
2023-02-25T02:35:01.323Z,5
2023-02-25T02:45:07.102Z,4
2023-02-25T02:55:13.150Z,3
2023-02-25T03:05:19.888Z,4
2023-02-25T03:15:26.718Z,5
2023-02-25T03:25:33.726Z,5
2023-02-25T03:35:38.385Z,4
2023-02-25T03:45:44.115Z,5
2023-02-25T03:55:50.679Z,4
2023-02-25T04:05:55.208Z,4
2023-02-25T04:16:01.362Z,5
2023-02-25T04:26:04.882Z,13
2023-02-25T04:36:10.402Z,5
2023-02-25T04:46:16.621Z,4
2023-02-25T04:56:23.100Z,5
2023-02-25T05:06:28.388Z,10
2023-02-25T05:16:34.964Z,6
2023-02-25T05:26:40.072Z,5
2023-02-25T05:36:47.467Z,6
2023-02-25T05:46:51.062Z,6
2023-02-25T05:56:58.433Z,5
2023-02-25T06:07:02.915Z,6
2023-02-25T06:17:10.562Z,6
2023-02-25T06:27:15.285Z,4
2023-02-25T06:37:21.736Z,5
2023-02-25T06:47:25.508Z,4
2023-02-25T06:57:32.075Z,6
2023-02-25T07:07:35.155Z,8
2023-02-25T07:17:41.641Z,9
2023-02-25T07:27:45.551Z,8
2023-02-25T07:37:50.144Z,8
2023-02-25T07:47:56.247Z,8
2023-02-25T07:58:00.798Z,8
2023-02-25T08:08:07.173Z,8
2023-02-25T08:18:11.964Z,9
2023-02-25T08:28:16.136Z,5
2023-02-25T08:38:22.396Z,7
2023-02-25T08:48:29.289Z,10
2023-02-25T08:58:35.728Z,11
2023-02-25T09:08:43.614Z,11
2023-02-25T09:18:51.132Z,9
2023-02-25T09:28:56.671Z,11
2023-02-25T09:39:01.236Z,11
2023-02-25T09:49:08.105Z,12
2023-02-25T09:59:11.653Z,9
2023-02-25T10:09:17.441Z,9
2023-02-25T10:19:24.514Z,11
2023-02-25T10:29:29.732Z,10
2023-02-25T10:39:35.930Z,10
2023-02-25T10:49:47.013Z,10
2023-02-25T10:59:46.613Z,18
2023-02-25T11:09:53.758Z,23
2023-02-25T11:19:59.829Z,10
2023-02-25T11:30:04.733Z,10
2023-02-25T11:40:10.026Z,9
2023-02-25T11:50:18.780Z,9
2023-02-25T12:00:24.946Z,10
2023-02-25T12:10:31.083Z,9
2023-02-25T12:20:35.672Z,8
2023-02-25T12:30:42.162Z,9
2023-02-25T12:40:49.447Z,9
2023-02-25T12:50:53.951Z,11
2023-02-25T13:00:58.565Z,10
2023-02-25T13:11:05.690Z,9
2023-02-25T13:21:12.524Z,14
2023-02-25T13:31:16.238Z,10
2023-02-25T13:41:23.513Z,9
2023-02-25T13:51:28.223Z,12
2023-02-25T14:01:34.860Z,7
2023-02-25T14:11:43.436Z,8
2023-02-25T14:21:45.171Z,6
2023-02-25T14:31:51.201Z,8
2023-02-25T14:41:56.875Z,8
2023-02-25T14:52:03.323Z,9
2023-02-25T15:02:09.345Z,12
2023-02-25T15:12:13.507Z,9
2023-02-25T15:22:18.359Z,6
2023-02-25T15:32:23.818Z,7
2023-02-25T15:42:27.011Z,9
2023-02-25T15:52:35.660Z,7
2023-02-25T16:02:39.511Z,11
2023-02-25T16:12:44.148Z,10
2023-02-25T16:22:51.622Z,10
2023-02-25T16:32:57.157Z,10
2023-02-25T16:43:01.721Z,9
2023-02-25T16:53:07.793Z,8
2023-02-25T17:03:12.921Z,9
2023-02-25T17:13:18.714Z,9
2023-02-25T17:23:24.785Z,8
2023-02-25T17:33:32.933Z,9
2023-02-25T17:43:39.125Z,7
2023-02-25T17:53:44.642Z,6
2023-02-25T18:03:51.171Z,7
2023-02-25T18:13:56.308Z,8
2023-02-25T18:24:02.876Z,7
2023-02-25T18:34:08.568Z,11
2023-02-25T18:44:15.643Z,6
2023-02-25T18:54:19.471Z,7
2023-02-25T19:04:23.533Z,6
2023-02-25T19:14:28.205Z,7
2023-02-25T19:24:34.676Z,11
2023-02-25T19:34:39.233Z,6
2023-02-25T19:44:46.681Z,5
2023-02-25T19:54:51.563Z,8
2023-02-25T20:04:57.617Z,6
2023-02-25T20:15:04.052Z,5
2023-02-25T20:25:09.631Z,5
2023-02-25T20:35:14.445Z,6
2023-02-25T20:45:22.927Z,7
2023-02-25T20:55:29.234Z,7
2023-02-25T21:05:34.042Z,7
2023-02-25T21:15:37.161Z,6
2023-02-25T21:25:42.763Z,6
2023-02-25T21:35:48.274Z,8
2023-02-25T21:45:53.127Z,5
2023-02-25T21:55:58.133Z,5
2023-02-25T22:06:04.282Z,6
2023-02-25T22:16:09.439Z,7
2023-02-25T22:26:17.064Z,6
2023-02-25T22:36:21.565Z,6
2023-02-25T22:46:28.453Z,6
2023-02-25T22:56:33.501Z,5
2023-02-25T23:06:45.967Z,5
2023-02-25T23:16:44.592Z,7
2023-02-25T23:26:48.362Z,5
2023-02-25T23:36:52.015Z,7
2023-02-25T23:46:57.840Z,6
2023-02-25T23:57:03.455Z,8
